createdAt,value
2018-12-24T00:00:01.786Z,99.99
2018-12-24T00:01:03.725Z,99.99
2018-12-24T00:02:03.703Z,99.99
2018-12-24T00:03:03.707Z,99.99
2018-12-24T00:04:03.706Z,99.99
2018-12-24T00:05:09.518Z,99.99
2018-12-24T00:06:01.926Z,99.99
2018-12-24T00:07:04.324Z,99.99
2018-12-24T00:09:19.141Z,99.99
2018-12-24T00:10:20.745Z,99.99
2018-12-24T00:11:20.750Z,99.99
2018-12-24T00:12:26.851Z,99.99
2018-12-24T00:14:29.230Z,99.99
2018-12-24T00:16:39.538Z,99.99
2018-12-24T00:17:41.222Z,99.99
2018-12-24T00:18:48.826Z,99.99
2018-12-24T00:19:41.242Z,99.99
2018-12-24T00:20:41.202Z,99.99
2018-12-24T00:21:47.116Z,99.99
2018-12-24T00:22:41.258Z,99.99
2018-12-24T00:23:49.973Z,99.99
2018-12-24T00:24:39.652Z,99.99
2018-12-24T00:25:41.397Z,99.99
2018-12-24T00:26:41.329Z,99.99
2018-12-24T00:27:41.176Z,99.99
2018-12-24T00:28:41.202Z,99.99
2018-12-24T00:29:41.180Z,99.99
2018-12-24T00:30:46.926Z,99.99
2018-12-24T00:31:41.463Z,99.99
2018-12-24T00:32:47.015Z,99.99
2018-12-24T00:33:49.460Z,99.99
2018-12-24T00:34:40.894Z,99.99
2018-12-24T00:35:47.940Z,99.99
2018-12-24T00:36:40.912Z,99.99
2018-12-24T00:37:40.988Z,99.99
2018-12-24T00:38:40.904Z,99.99
2018-12-24T00:39:41.048Z,99.99
2018-12-24T00:40:40.836Z,99.99
2018-12-24T00:41:47.884Z,99.99
2018-12-24T00:42:46.862Z,99.99
2018-12-24T00:43:41.030Z,99.99
2018-12-24T00:44:47.837Z,99.99
2018-12-24T00:45:41.082Z,99.99
2018-12-24T00:46:40.986Z,99.99
2018-12-24T00:47:47.791Z,99.99
2018-12-24T00:48:41.099Z,99.99
2018-12-24T00:49:41.008Z,99.99
2018-12-24T00:50:46.727Z,99.99
2018-12-24T00:51:46.705Z,99.99
2018-12-24T00:53:50.444Z,99.99
2018-12-24T00:54:52.097Z,99.99
2018-12-24T00:55:52.043Z,99.99
2018-12-24T00:56:52.163Z,99.99
2018-12-24T00:57:51.992Z,99.99
2018-12-24T00:58:51.973Z,99.99
2018-12-24T00:59:51.991Z,99.99
2018-12-24T01:00:51.965Z,99.99
2018-12-24T01:01:51.958Z,99.99
2018-12-24T01:02:52.038Z,99.99
2018-12-24T01:03:51.972Z,99.99
2018-12-24T01:04:51.968Z,99.99
2018-12-24T01:05:51.964Z,99.99
2018-12-24T01:06:52.011Z,99.99
2018-12-24T01:07:50.180Z,99.99
2018-12-24T01:08:59.146Z,99.99
2018-12-24T01:09:52.185Z,99.99
2018-12-24T01:10:57.825Z,99.99
2018-12-24T01:11:52.213Z,99.99
2018-12-24T01:13:00.212Z,99.99
2018-12-24T01:13:57.777Z,99.99
2018-12-24T01:14:51.742Z,99.99
2018-12-24T01:15:57.997Z,99.99
2018-12-24T01:16:51.840Z,99.99
2018-12-24T01:17:51.734Z,99.99
2018-12-24T01:18:59.817Z,99.99
2018-12-24T01:19:51.875Z,99.99
2018-12-24T01:20:51.864Z,99.99
2018-12-24T01:21:57.728Z,99.99
2018-12-24T01:22:51.887Z,99.99
2018-12-24T01:23:59.955Z,99.99
2018-12-24T01:24:51.883Z,99.99
2018-12-24T01:27:00.340Z,99.99
2018-12-24T01:28:01.949Z,99.99
2018-12-24T01:29:02.035Z,99.99
2018-12-24T01:30:01.899Z,99.99
2018-12-24T01:31:07.851Z,99.99
2018-12-24T01:32:02.096Z,99.99
2018-12-24T01:33:10.614Z,99.99
2018-12-24T01:34:02.098Z,99.99
2018-12-24T01:35:02.018Z,99.99
2018-12-24T01:36:02.041Z,99.99
2018-12-24T01:37:01.966Z,99.99
2018-12-24T01:38:10.188Z,99.99
2018-12-24T01:39:02.189Z,99.99
2018-12-24T01:41:10.401Z,99.99
2018-12-24T01:43:19.697Z,99.99
2018-12-24T01:44:21.323Z,99.99
2018-12-24T01:45:28.660Z,99.99
2018-12-24T01:46:21.470Z,99.99
2018-12-24T01:47:27.210Z,99.99
2018-12-24T01:48:21.486Z,99.99
2018-12-24T01:49:21.435Z,99.99
2018-12-24T01:50:27.225Z,99.99
2018-12-24T01:51:27.145Z,99.99
2018-12-24T01:52:21.487Z,99.99
2018-12-24T01:53:28.585Z,99.99
2018-12-24T01:54:21.012Z,99.99
2018-12-24T01:55:21.027Z,99.99
2018-12-24T01:56:27.111Z,99.99
2018-12-24T01:57:21.058Z,99.99
2018-12-24T01:58:28.177Z,99.99
2018-12-24T01:59:21.115Z,99.99
2018-12-24T02:00:27.061Z,99.99
2018-12-24T02:01:27.060Z,99.99
2018-12-24T02:02:21.300Z,99.99
2018-12-24T02:04:10.352Z,99.99
2018-12-24T02:05:11.991Z,99.99
2018-12-24T02:06:11.872Z,99.99
2018-12-24T02:07:17.869Z,99.99
2018-12-24T02:08:19.543Z,99.99
2018-12-24T02:09:12.063Z,99.99
2018-12-24T02:11:21.460Z,99.99
2018-12-24T02:13:33.144Z,99.99
2018-12-24T02:14:34.926Z,99.99
2018-12-24T02:15:40.571Z,99.99
2018-12-24T02:16:41.566Z,99.99
2018-12-24T02:17:40.486Z,99.99
2018-12-24T02:18:42.135Z,99.99
2018-12-24T02:19:34.570Z,99.99
2018-12-24T02:20:40.515Z,99.99
2018-12-24T02:22:44.416Z,99.99
2018-12-24T02:24:54.951Z,99.99
2018-12-24T02:27:05.158Z,99.99
2018-12-24T02:29:15.389Z,99.99
2018-12-24T02:30:17.134Z,99.99
2018-12-24T02:31:17.014Z,99.99
2018-12-24T02:32:17.124Z,99.99
2018-12-24T02:33:17.033Z,99.99
2018-12-24T02:34:16.959Z,99.99
2018-12-24T02:35:23.943Z,99.99
2018-12-24T02:37:37.587Z,99.99
2018-12-24T02:38:39.194Z,99.99
2018-12-24T02:39:46.097Z,99.99
2018-12-24T02:40:45.078Z,99.99
2018-12-24T02:41:39.386Z,99.99
2018-12-24T02:42:52.318Z,99.99
2018-12-24T02:44:48.994Z,99.99
2018-12-24T02:45:50.824Z,99.99
2018-12-24T02:46:57.547Z,99.99
2018-12-24T02:47:58.006Z,99.99
2018-12-24T02:48:50.504Z,99.99
2018-12-24T02:49:50.436Z,99.99
2018-12-24T02:50:57.594Z,99.99
2018-12-24T02:51:56.418Z,99.99
2018-12-24T02:53:59.156Z,99.99
2018-12-24T02:56:08.378Z,99.99
2018-12-24T02:57:10.036Z,99.99
2018-12-24T02:58:18.147Z,99.99
2018-12-24T02:59:10.103Z,99.99
2018-12-24T03:00:10.099Z,99.99
2018-12-24T03:02:26.472Z,99.99
2018-12-24T03:03:28.110Z,99.99
2018-12-24T03:04:34.051Z,99.99
2018-12-24T03:06:36.726Z,99.99
2018-12-24T03:08:46.087Z,99.99
2018-12-24T03:10:55.181Z,99.99
2018-12-24T03:13:04.422Z,99.99
2018-12-24T03:14:06.017Z,99.99
2018-12-24T03:15:12.971Z,99.99
2018-12-24T03:16:12.013Z,99.99
2018-12-24T03:17:11.943Z,99.99
2018-12-24T03:18:06.184Z,99.99
2018-12-24T03:19:13.291Z,99.99
2018-12-24T03:20:06.237Z,99.99
2018-12-24T03:21:06.167Z,99.99
2018-12-24T03:22:12.935Z,99.99
2018-12-24T03:23:06.283Z,99.99
2018-12-24T03:24:13.153Z,99.99
2018-12-24T03:25:12.882Z,99.99
2018-12-24T03:26:05.920Z,99.99
2018-12-24T03:27:05.879Z,99.99
2018-12-24T03:28:12.965Z,99.99
2018-12-24T03:29:05.938Z,99.99
2018-12-24T03:30:05.910Z,99.99
2018-12-24T03:31:05.796Z,99.99
2018-12-24T03:32:12.099Z,99.99
2018-12-24T03:33:14.076Z,99.99
2018-12-24T03:34:05.997Z,99.99
2018-12-24T03:35:11.786Z,99.99
2018-12-24T03:36:06.111Z,99.99
2018-12-24T03:37:06.005Z,99.99
2018-12-24T03:38:05.927Z,99.99
2018-12-24T03:39:05.883Z,99.99
2018-12-24T03:40:05.926Z,99.99
2018-12-24T03:41:13.966Z,99.99
2018-12-24T03:42:12.716Z,99.99
2018-12-24T03:43:13.144Z,99.99
2018-12-24T03:44:05.672Z,99.99
2018-12-24T03:45:05.740Z,99.99
2018-12-24T03:46:12.639Z,99.99
2018-12-24T03:47:12.923Z,99.99
2018-12-24T03:48:12.844Z,99.99
2018-12-24T03:49:11.542Z,99.99
2018-12-24T03:50:05.817Z,99.99
2018-12-24T03:51:11.567Z,99.99
2018-12-24T03:52:12.903Z,99.99
2018-12-24T03:54:14.271Z,99.99
2018-12-24T03:55:15.825Z,99.99
2018-12-24T03:56:21.860Z,99.99
2018-12-24T03:57:16.009Z,99.99
2018-12-24T03:59:25.743Z,99.99
2018-12-24T04:00:27.674Z,99.99
2018-12-24T04:02:36.024Z,99.99
2018-12-24T04:03:37.555Z,99.99
2018-12-24T04:04:37.618Z,99.99
2018-12-24T04:05:43.532Z,99.99
2018-12-24T04:06:37.692Z,99.99
2018-12-24T04:08:46.177Z,99.99
2018-12-24T04:09:47.793Z,99.99
2018-12-24T04:10:47.809Z,99.99
2018-12-24T04:11:53.749Z,99.99
2018-12-24T04:12:47.897Z,99.99
2018-12-24T04:13:54.937Z,99.99
2018-12-24T04:14:53.682Z,99.99
2018-12-24T04:15:54.631Z,99.99
2018-12-24T04:16:53.674Z,99.99
2018-12-24T04:17:56.061Z,99.99
2018-12-24T04:18:47.556Z,99.99
2018-12-24T04:19:53.605Z,99.99
2018-12-24T04:21:57.626Z,99.99
2018-12-24T04:24:07.894Z,99.99
2018-12-24T04:26:19.180Z,99.99
2018-12-24T04:28:30.494Z,99.99
2018-12-24T04:29:31.978Z,99.99
2018-12-24T04:30:38.921Z,99.99
2018-12-24T04:31:39.306Z,99.99
2018-12-24T04:33:40.822Z,99.99
2018-12-24T04:34:48.431Z,99.99
2018-12-24T04:37:14.334Z,99.99
2018-12-24T04:38:16.092Z,99.99
2018-12-24T04:39:16.160Z,99.99
2018-12-24T04:40:16.065Z,99.99
2018-12-24T04:41:16.086Z,99.10
2018-12-24T04:42:16.102Z,97.65
2018-12-24T04:43:16.095Z,97.50
2018-12-24T04:44:16.094Z,98.22
2018-12-24T04:45:16.076Z,98.07
2018-12-24T04:46:16.093Z,96.92
2018-12-24T04:47:16.112Z,96.82
2018-12-24T04:48:16.087Z,96.41
2018-12-24T04:49:15.591Z,96.88
2018-12-24T04:50:15.575Z,97.24
2018-12-24T04:51:15.587Z,96.92
2018-12-24T04:52:16.567Z,97.96
2018-12-24T04:53:15.621Z,97.96
2018-12-24T04:54:15.565Z,98.38
2018-12-24T04:55:15.574Z,98.07
2018-12-24T04:56:16.564Z,97.55
2018-12-24T04:57:13.988Z,97.69
2018-12-24T04:58:15.592Z,97.75
2018-12-24T04:59:15.623Z,98.11
2018-12-24T05:00:15.588Z,98.17
2018-12-24T05:01:15.579Z,97.34
2018-12-24T05:02:15.577Z,98.27
2018-12-24T05:03:14.093Z,97.96
2018-12-24T05:04:15.576Z,97.80
2018-12-24T05:05:15.596Z,99.00
2018-12-24T05:06:16.571Z,99.10
2018-12-24T05:07:15.571Z,99.31
2018-12-24T05:08:15.591Z,99.10
2018-12-24T05:09:15.573Z,99.52
2018-12-24T05:10:15.576Z,99.41
2018-12-24T05:11:15.651Z,99.82
2018-12-24T05:12:15.578Z,99.52
2018-12-24T05:13:15.582Z,99.99
2018-12-24T05:14:15.599Z,99.99
2018-12-24T05:15:15.577Z,99.99
2018-12-24T05:16:15.567Z,99.93
2018-12-24T05:17:15.611Z,99.99
2018-12-24T05:18:15.574Z,99.99
2018-12-24T05:19:15.603Z,99.99
2018-12-24T05:20:15.574Z,99.99
2018-12-24T05:21:15.571Z,99.99
2018-12-24T05:22:15.578Z,99.99
2018-12-24T05:23:15.604Z,99.99
2018-12-24T05:24:15.584Z,99.99
2018-12-24T05:25:15.584Z,99.99
2018-12-24T05:26:16.583Z,99.99
2018-12-24T05:27:16.575Z,99.99
2018-12-24T05:28:15.563Z,99.99
2018-12-24T05:29:15.684Z,99.99
2018-12-24T05:30:15.577Z,99.99
2018-12-24T05:31:15.574Z,99.99
2018-12-24T05:32:15.575Z,99.99
2018-12-24T05:33:15.573Z,99.99
2018-12-24T05:34:15.575Z,99.99
2018-12-24T05:35:15.604Z,99.99
2018-12-24T05:36:15.570Z,99.72
2018-12-24T05:37:15.569Z,99.99
2018-12-24T05:38:15.131Z,99.99
2018-12-24T05:39:15.063Z,99.99
2018-12-24T05:40:15.079Z,99.99
2018-12-24T05:41:15.110Z,99.99
2018-12-24T05:42:15.153Z,99.99
2018-12-24T05:43:15.059Z,99.99
2018-12-24T05:44:15.072Z,99.99
2018-12-24T05:45:14.088Z,99.99
2018-12-24T05:46:15.071Z,99.99
2018-12-24T05:47:15.071Z,99.99
2018-12-24T05:48:15.088Z,99.99
2018-12-24T05:49:15.074Z,99.99
2018-12-24T05:50:15.073Z,99.99
2018-12-24T05:51:13.434Z,99.99
2018-12-24T05:52:15.059Z,99.99
2018-12-24T05:53:15.059Z,99.99
2018-12-24T05:54:15.078Z,99.99
2018-12-24T05:55:15.092Z,99.99
2018-12-24T05:56:15.117Z,99.99
2018-12-24T05:57:14.548Z,99.99
2018-12-24T05:58:15.073Z,99.99
2018-12-24T05:59:15.069Z,99.99
2018-12-24T06:00:15.072Z,99.99
2018-12-24T06:01:15.084Z,99.99
2018-12-24T06:02:15.092Z,99.99
2018-12-24T06:03:13.314Z,99.99
2018-12-24T06:04:15.074Z,99.99
2018-12-24T06:05:15.074Z,99.99
2018-12-24T06:06:15.079Z,99.99
2018-12-24T06:07:15.100Z,99.99
2018-12-24T06:08:15.068Z,99.99
2018-12-24T06:09:13.244Z,99.99
2018-12-24T06:10:15.059Z,99.99
2018-12-24T06:11:15.075Z,99.99
2018-12-24T06:12:22.059Z,99.99
2018-12-24T06:13:15.143Z,99.99
2018-12-24T06:14:15.138Z,99.99
2018-12-24T06:15:13.190Z,99.99
2018-12-24T06:16:15.178Z,99.99
2018-12-24T06:17:15.156Z,99.99
2018-12-24T06:18:15.149Z,99.99
2018-12-24T06:19:14.689Z,99.99
2018-12-24T06:20:14.649Z,99.99
2018-12-24T06:21:13.145Z,99.99
2018-12-24T06:22:14.889Z,99.99
2018-12-24T06:23:14.684Z,99.99
2018-12-24T06:24:15.702Z,99.99
2018-12-24T06:25:14.687Z,99.99
2018-12-24T06:26:14.715Z,99.99
2018-12-24T06:27:22.270Z,99.99
2018-12-24T06:28:20.773Z,99.99
2018-12-24T06:29:20.741Z,99.99
2018-12-24T06:30:14.849Z,99.99
2018-12-24T06:31:20.670Z,99.99
2018-12-24T06:33:24.451Z,99.99
2018-12-24T06:34:25.976Z,99.99
2018-12-24T06:35:25.989Z,99.99
2018-12-24T06:36:31.806Z,99.99
2018-12-24T06:37:33.090Z,99.99
2018-12-24T06:38:26.063Z,99.99
2018-12-24T06:39:26.089Z,99.99
2018-12-24T06:40:26.058Z,99.99
2018-12-24T06:41:26.071Z,99.99
2018-12-24T06:42:26.036Z,99.99
2018-12-24T06:43:26.060Z,99.99
2018-12-24T06:44:26.035Z,99.99
2018-12-24T06:45:31.766Z,99.99
2018-12-24T06:46:32.124Z,99.99
2018-12-24T06:47:25.166Z,99.99
2018-12-24T06:48:33.794Z,99.99
2018-12-24T06:49:31.802Z,99.99
2018-12-24T06:50:31.787Z,99.99
2018-12-24T06:51:34.524Z,99.99
2018-12-24T06:52:33.202Z,99.99
2018-12-24T06:53:25.969Z,99.64
2018-12-24T06:55:34.331Z,99.99
2018-12-24T06:57:43.555Z,99.99
2018-12-24T06:59:52.910Z,99.95
2018-12-24T07:02:02.037Z,99.99
2018-12-24T07:04:11.220Z,99.99
2018-12-24T07:06:20.486Z,99.99
2018-12-24T07:08:29.756Z,99.99
2018-12-24T07:10:38.933Z,99.99
2018-12-24T07:12:48.129Z,99.99
2018-12-24T07:14:57.392Z,99.99
2018-12-24T07:17:06.605Z,99.99
2018-12-24T07:19:15.855Z,99.99
2018-12-24T07:21:25.164Z,99.99
2018-12-24T07:23:34.331Z,99.99
2018-12-24T07:25:43.659Z,99.99
2018-12-24T07:26:51.200Z,99.99
2018-12-24T07:27:51.160Z,99.99
2018-12-24T07:28:45.387Z,99.99
2018-12-24T07:29:52.484Z,99.99
2018-12-24T07:31:59.754Z,99.99
2018-12-24T07:34:09.887Z,99.99
2018-12-24T07:38:12.084Z,99.99
2018-12-24T07:39:13.626Z,99.99
2018-12-24T07:40:14.756Z,99.99
2018-12-24T07:41:13.666Z,99.99
2018-12-24T07:42:13.623Z,99.99
2018-12-24T07:43:13.667Z,99.99
2018-12-24T07:44:13.895Z,99.63
2018-12-24T07:45:13.869Z,99.68
2018-12-24T07:46:13.656Z,99.27
2018-12-24T07:47:13.986Z,97.81
2018-12-24T07:48:13.682Z,98.07
2018-12-24T07:49:13.817Z,98.27
2018-12-24T07:50:13.626Z,98.27
2018-12-24T07:51:13.658Z,99.32
2018-12-24T07:52:13.668Z,99.52
2018-12-24T07:53:13.660Z,99.84
2018-12-24T07:54:13.744Z,99.42
2018-12-24T07:55:13.783Z,98.74
2018-12-24T07:56:21.689Z,97.07
2018-12-24T07:57:26.896Z,96.66
2018-12-24T08:03:49.437Z,96.59
2018-12-24T08:07:43.400Z,95.60
2018-12-24T08:09:38.205Z,95.50
2018-12-24T08:12:42.228Z,93.77
2018-12-24T08:13:43.582Z,93.56
2018-12-24T08:14:43.006Z,93.04
2018-12-24T08:15:43.356Z,95.23
2018-12-24T08:16:43.344Z,94.08
2018-12-24T08:17:43.327Z,93.35
2018-12-24T08:18:44.766Z,94.08
2018-12-24T08:21:18.961Z,93.14
2018-12-24T08:22:08.311Z,93.24
2018-12-24T08:25:01.849Z,92.93
2018-12-24T08:26:02.540Z,92.52
2018-12-24T08:27:01.047Z,92.72
2018-12-24T08:28:02.182Z,92.93
2018-12-24T08:29:12.475Z,93.24
2018-12-24T08:30:03.218Z,93.35
2018-12-24T08:32:24.278Z,94.08
2018-12-24T08:35:20.110Z,94.14
2018-12-24T08:36:22.453Z,94.39
2018-12-24T08:37:22.239Z,95.02
2018-12-24T08:38:21.655Z,94.29
2018-12-24T08:39:22.166Z,94.29
2018-12-24T08:40:21.840Z,94.70
2018-12-24T08:41:22.495Z,94.35
2018-12-24T08:46:54.047Z,94.24
2018-12-24T08:47:55.291Z,94.45
2018-12-24T08:49:06.525Z,95.02
2018-12-24T08:51:04.262Z,94.04
2018-12-24T08:52:06.089Z,93.62
2018-12-24T08:53:07.056Z,93.52
2018-12-24T08:54:06.100Z,92.37
2018-12-24T08:55:06.056Z,91.85
2018-12-24T08:56:06.037Z,91.96
2018-12-24T08:57:04.050Z,92.06
2018-12-24T08:58:05.575Z,92.99
2018-12-24T08:59:05.532Z,93.73
2018-12-24T09:00:05.549Z,94.04
2018-12-24T09:01:05.532Z,92.89
2018-12-24T09:02:05.534Z,92.68
2018-12-24T09:03:04.004Z,92.79
2018-12-24T09:04:05.537Z,93.20
2018-12-24T09:05:05.564Z,92.99
2018-12-24T09:06:05.532Z,92.89
2018-12-24T09:07:05.542Z,93.20
2018-12-24T09:08:05.536Z,92.79
2018-12-24T09:09:05.643Z,93.10
2018-12-24T09:10:05.545Z,92.68
2018-12-24T09:11:05.537Z,93.52
2018-12-24T09:12:05.571Z,93.52
2018-12-24T09:13:05.530Z,93.10
2018-12-24T09:14:05.531Z,93.41
2018-12-24T09:15:05.622Z,94.41
2018-12-24T09:16:05.549Z,94.31
2018-12-24T09:17:05.535Z,94.20
2018-12-24T09:18:05.538Z,94.82
2018-12-24T09:19:05.536Z,94.87
2018-12-24T09:20:05.540Z,94.41
2018-12-24T09:21:05.561Z,94.41
2018-12-24T09:22:05.535Z,94.51
2018-12-24T09:23:05.523Z,94.41
2018-12-24T09:24:05.535Z,94.37
2018-12-24T09:25:05.537Z,94.93
2018-12-24T09:26:03.932Z,94.41
2018-12-24T09:28:21.761Z,94.82
2018-12-24T09:30:33.500Z,94.31
2018-12-24T09:31:34.973Z,94.57
2018-12-24T09:32:32.982Z,93.74
2018-12-24T09:36:02.230Z,93.85
2018-12-24T09:38:14.022Z,94.99
2018-12-24T09:40:24.579Z,94.68
2018-12-24T09:42:33.790Z,94.68
2018-12-24T09:43:36.449Z,94.37
2018-12-24T09:44:35.389Z,93.95
2018-12-24T09:45:35.473Z,94.16
2018-12-24T09:46:35.472Z,93.85
2018-12-24T09:47:35.377Z,94.16
2018-12-24T09:48:36.428Z,94.68
2018-12-24T09:49:35.408Z,94.37
2018-12-24T09:50:35.454Z,94.99
2018-12-24T09:51:35.388Z,94.78
2018-12-24T09:52:35.374Z,94.37
2018-12-24T09:53:35.407Z,94.22
2018-12-24T09:54:35.399Z,93.01
2018-12-24T09:55:35.372Z,93.29
2018-12-24T09:56:35.460Z,93.18
2018-12-24T09:57:35.378Z,93.18
2018-12-24T09:58:35.356Z,92.45
2018-12-24T09:59:35.400Z,93.23
2018-12-24T10:00:35.370Z,94.95
2018-12-24T10:01:35.361Z,92.91
2018-12-24T10:02:35.386Z,93.29
2018-12-24T10:03:35.381Z,93.91
2018-12-24T10:04:35.373Z,93.74
2018-12-24T10:05:35.389Z,94.43
2018-12-24T10:06:35.389Z,94.32
2018-12-24T10:07:35.393Z,94.32
2018-12-24T10:08:35.373Z,93.60
2018-12-24T10:09:35.359Z,94.32
2018-12-24T10:10:35.387Z,94.22
2018-12-24T10:11:35.373Z,94.95
2018-12-24T10:12:34.873Z,95.26
2018-12-24T10:13:34.872Z,94.64
2018-12-24T10:14:34.865Z,94.32
2018-12-24T10:15:34.869Z,94.74
2018-12-24T10:16:34.896Z,94.95
2018-12-24T10:17:34.878Z,94.32
2018-12-24T10:18:33.364Z,94.37
2018-12-24T10:19:34.859Z,94.57
2018-12-24T10:20:34.868Z,95.26
2018-12-24T10:21:34.887Z,95.20
2018-12-24T10:22:34.880Z,95.15
2018-12-24T10:23:34.880Z,95.36
2018-12-24T10:24:34.858Z,95.05
2018-12-24T10:25:34.855Z,94.64
2018-12-24T10:26:40.771Z,94.95
2018-12-24T10:27:35.100Z,94.95
2018-12-24T10:28:35.060Z,95.15
2018-12-24T10:29:40.782Z,93.70
2018-12-24T10:30:35.056Z,94.16
2018-12-24T10:31:35.007Z,93.80
2018-12-24T10:32:40.778Z,93.80
2018-12-24T10:33:35.018Z,93.49
2018-12-24T10:34:35.045Z,94.16
2018-12-24T10:35:34.995Z,94.26
2018-12-24T10:36:40.748Z,94.32
2018-12-24T10:37:35.046Z,95.20
2018-12-24T10:38:35.044Z,93.85
2018-12-24T10:39:35.026Z,93.23
2018-12-24T10:40:35.072Z,94.37
2018-12-24T10:41:35.112Z,93.74
2018-12-24T10:42:35.000Z,94.06
2018-12-24T10:43:35.057Z,94.16
2018-12-24T10:44:35.022Z,93.70
2018-12-24T10:45:35.010Z,94.22
2018-12-24T10:46:34.025Z,93.70
2018-12-24T10:47:33.705Z,93.12
2018-12-24T10:48:34.525Z,93.18
2018-12-24T10:49:34.536Z,92.97
2018-12-24T10:50:34.538Z,93.95
2018-12-24T10:51:34.521Z,93.54
2018-12-24T10:52:34.542Z,93.23
2018-12-24T10:53:32.939Z,93.85
2018-12-24T10:54:34.510Z,94.43
2018-12-24T10:55:34.520Z,94.01
2018-12-24T10:56:34.533Z,93.60
2018-12-24T10:57:35.530Z,93.70
2018-12-24T10:58:34.537Z,94.32
2018-12-24T10:59:34.628Z,93.18
2018-12-24T11:00:34.585Z,93.29
2018-12-24T11:01:34.522Z,94.28
2018-12-24T11:02:34.636Z,94.43
2018-12-24T11:03:34.710Z,93.66
2018-12-24T11:04:34.899Z,92.51
2018-12-24T11:05:35.021Z,92.82
2018-12-24T11:06:34.899Z,92.97
2018-12-24T11:07:35.903Z,92.03
2018-12-24T11:08:34.826Z,93.18
2018-12-24T11:09:34.984Z,92.66
2018-12-24T11:10:34.910Z,91.72
2018-12-24T11:11:34.961Z,91.10
2018-12-24T11:12:34.876Z,92.35
2018-12-24T11:13:33.104Z,92.86
2018-12-24T11:14:34.773Z,91.00
2018-12-24T11:15:34.535Z,92.03
2018-12-24T11:16:34.372Z,93.35
2018-12-24T11:17:34.517Z,93.14
2018-12-24T11:18:34.522Z,93.35
2018-12-24T11:19:34.518Z,93.18
2018-12-24T11:20:34.511Z,93.03
2018-12-24T11:21:34.542Z,92.14
2018-12-24T11:22:32.642Z,93.29
2018-12-24T11:23:34.537Z,92.76
2018-12-24T11:24:34.524Z,93.91
2018-12-24T11:25:34.528Z,93.49
2018-12-24T11:26:34.533Z,93.07
2018-12-24T11:27:34.579Z,93.80
2018-12-24T11:28:34.551Z,93.18
2018-12-24T11:29:34.579Z,93.70
2018-12-24T11:30:34.528Z,94.07
2018-12-24T11:31:35.726Z,94.07
2018-12-24T11:33:42.396Z,94.28
2018-12-24T11:34:43.978Z,94.38
2018-12-24T11:35:44.020Z,94.03
2018-12-24T11:36:44.010Z,93.51
2018-12-24T11:37:43.988Z,93.72
2018-12-24T11:38:43.987Z,93.10
2018-12-24T11:39:43.979Z,92.88
2018-12-24T11:40:43.973Z,91.43
2018-12-24T11:41:43.979Z,91.06
2018-12-24T11:42:43.986Z,92.57
2018-12-24T11:43:43.998Z,90.75
2018-12-24T11:44:43.979Z,90.85
2018-12-24T11:45:49.768Z,91.99
2018-12-24T11:46:44.064Z,92.05
2018-12-24T11:47:44.030Z,92.51
2018-12-24T11:48:44.008Z,92.36
2018-12-24T11:49:44.023Z,92.68
2018-12-24T11:50:44.012Z,92.26
2018-12-24T11:51:43.996Z,92.63
2018-12-24T11:52:44.048Z,92.47
2018-12-24T11:53:44.011Z,88.71
2018-12-24T11:54:44.023Z,85.24
2018-12-24T11:55:43.996Z,86.19
2018-12-24T11:56:44.014Z,84.01
2018-12-24T11:57:45.005Z,84.22
2018-12-24T11:58:44.009Z,84.09
2018-12-24T11:59:43.013Z,84.44
2018-12-24T12:00:43.509Z,85.04
2018-12-24T12:01:43.513Z,87.88
2018-12-24T12:02:43.535Z,88.30
2018-12-24T12:03:43.513Z,89.06
2018-12-24T12:04:43.512Z,90.31
2018-12-24T12:05:43.511Z,91.49
2018-12-24T12:06:43.512Z,91.18
2018-12-24T12:07:43.507Z,90.97
2018-12-24T12:08:43.533Z,91.02
2018-12-24T12:09:41.899Z,91.43
2018-12-24T12:10:43.508Z,91.53
2018-12-24T12:11:43.528Z,90.56
2018-12-24T12:12:43.502Z,89.40
2018-12-24T12:13:43.515Z,85.50
2018-12-24T12:14:43.547Z,81.95
2018-12-24T12:15:42.800Z,81.82
2018-12-24T12:16:43.508Z,82.86
2018-12-24T12:17:43.506Z,85.39
2018-12-24T12:18:43.521Z,87.96
2018-12-24T12:19:43.511Z,89.25
2018-12-24T12:20:43.530Z,90.31
2018-12-24T12:21:41.774Z,88.32
2018-12-24T12:22:43.510Z,85.47
2018-12-24T12:24:35.205Z,81.21
2018-12-24T12:25:36.899Z,78.80
2018-12-24T12:26:36.935Z,77.39
2018-12-24T12:27:36.896Z,77.60
2018-12-24T12:28:36.865Z,81.05
2018-12-24T12:29:36.868Z,80.53
2018-12-24T12:30:36.894Z,80.18
2018-12-24T12:31:36.856Z,79.43
2018-12-24T12:32:36.858Z,81.05
2018-12-24T12:33:36.855Z,82.20
2018-12-24T12:34:36.868Z,84.09
2018-12-24T12:35:36.859Z,82.67
2018-12-24T12:36:36.893Z,81.23
2018-12-24T12:37:36.847Z,82.37
2018-12-24T12:38:42.680Z,83.33
2018-12-24T12:39:36.966Z,82.12
2018-12-24T12:40:37.046Z,79.80
2018-12-24T12:42:45.202Z,82.05
2018-12-24T12:43:46.867Z,82.84
2018-12-24T12:44:45.174Z,81.67
2018-12-24T12:45:51.237Z,80.94
2018-12-24T12:46:46.922Z,80.91
2018-12-24T12:47:46.888Z,81.95
2018-12-24T12:48:46.893Z,81.88
2018-12-24T12:49:46.914Z,82.68
2018-12-24T12:50:46.888Z,83.65
2018-12-24T12:51:46.870Z,84.63
2018-12-24T12:52:46.874Z,85.56
2018-12-24T12:53:46.882Z,86.54
2018-12-24T12:54:46.921Z,86.29
2018-12-24T12:55:46.906Z,87.19
2018-12-24T12:56:46.893Z,86.99
2018-12-24T12:57:46.872Z,88.79
2018-12-24T12:58:46.892Z,88.44
2018-12-24T12:59:46.882Z,88.28
2018-12-24T13:00:46.939Z,89.00
2018-12-24T13:01:44.988Z,90.19
2018-12-24T13:02:46.868Z,90.19
2018-12-24T13:03:46.871Z,89.98
2018-12-24T13:04:46.894Z,90.70
2018-12-24T13:05:46.893Z,90.95
2018-12-24T13:06:46.916Z,90.91
2018-12-24T13:07:46.886Z,91.27
2018-12-24T13:08:46.886Z,91.12
2018-12-24T13:09:46.890Z,90.85
2018-12-24T13:10:46.906Z,91.16
2018-12-24T13:11:46.880Z,91.37
2018-12-24T13:12:46.883Z,91.68
2018-12-24T13:14:55.275Z,92.10
2018-12-24T13:15:59.691Z,91.89
2018-12-24T13:16:56.834Z,92.10
2018-12-24T13:17:56.794Z,92.51
2018-12-24T13:18:56.805Z,91.78
2018-12-24T13:19:56.829Z,91.49
2018-12-24T13:20:56.819Z,90.37
2018-12-24T13:22:04.147Z,88.98
2018-12-24T13:22:57.819Z,88.59
2018-12-24T13:23:56.915Z,85.55
2018-12-24T13:24:56.814Z,84.41
2018-12-24T13:25:56.816Z,84.82
2018-12-24T13:26:56.808Z,84.34
2018-12-24T13:27:56.835Z,84.55
2018-12-24T13:28:56.833Z,84.44
2018-12-24T13:29:56.847Z,84.86
2018-12-24T13:30:55.078Z,85.52
2018-12-24T13:31:56.811Z,85.63
2018-12-24T13:32:56.821Z,85.27
2018-12-24T13:33:56.878Z,85.27
2018-12-24T13:34:56.854Z,85.31
2018-12-24T13:35:56.811Z,85.31
2018-12-24T13:36:56.801Z,86.08
2018-12-24T13:37:56.835Z,87.57
2018-12-24T13:38:56.820Z,88.78
2018-12-24T13:39:56.813Z,88.57
2018-12-24T13:40:56.845Z,88.36
2018-12-24T13:41:56.798Z,87.22
2018-12-24T13:42:56.815Z,87.07
2018-12-24T13:43:56.814Z,87.14
2018-12-24T13:44:56.300Z,86.83
2018-12-24T13:45:56.468Z,88.45
2018-12-24T13:46:56.384Z,88.09
2018-12-24T13:47:56.311Z,86.81
2018-12-24T13:48:56.320Z,87.85
2018-12-24T13:49:56.300Z,85.78
2018-12-24T13:50:56.320Z,84.68
2018-12-24T13:51:56.304Z,84.58
2018-12-24T13:52:56.326Z,83.95
2018-12-24T13:53:56.328Z,84.51
2018-12-24T13:54:57.401Z,85.13
2018-12-24T13:55:56.314Z,84.82
2018-12-24T13:56:56.311Z,85.06
2018-12-24T13:57:56.308Z,87.04
2018-12-24T13:58:56.361Z,86.41
2018-12-24T13:59:56.294Z,87.24
2018-12-24T14:00:56.315Z,87.14
2018-12-24T14:01:56.444Z,85.69
2018-12-24T14:02:56.305Z,86.31
2018-12-24T14:03:56.313Z,87.66
2018-12-24T14:04:54.615Z,87.04
2018-12-24T14:05:56.310Z,86.83
2018-12-24T14:06:56.302Z,87.45
2018-12-24T14:07:56.448Z,87.24
2018-12-24T14:08:56.291Z,86.41
2018-12-24T14:09:56.289Z,88.53
2018-12-24T14:10:54.555Z,88.39
2018-12-24T14:11:56.289Z,88.32
2018-12-24T14:12:56.330Z,88.84
2018-12-24T14:13:56.290Z,88.94
2018-12-24T14:14:56.304Z,88.94
2018-12-24T14:15:56.312Z,89.15
2018-12-24T14:16:56.303Z,88.94
2018-12-24T14:17:56.290Z,90.33
2018-12-24T14:18:56.346Z,89.09
2018-12-24T14:19:56.304Z,88.88
2018-12-24T14:20:56.311Z,88.57
2018-12-24T14:21:56.297Z,89.09
2018-12-24T14:22:56.298Z,89.50
2018-12-24T14:23:56.304Z,89.71
2018-12-24T14:24:56.337Z,89.81
2018-12-24T14:25:56.307Z,90.54
2018-12-24T14:26:56.303Z,90.06
2018-12-24T14:27:56.290Z,90.58
2018-12-24T14:28:56.300Z,90.37
2018-12-24T14:29:56.302Z,90.64
2018-12-24T14:30:56.335Z,91.06
2018-12-24T14:31:55.306Z,91.37